Time;durP1;ratioP1;P1;durP2;ratioP2;P2;SDS_P1;SDS_P2;PMS_P1;PMS_P2;Temp;Humidity;BMP_temperature;BMP_pressure;BME280_temperature;BME280_humidity;BME280_pressure;Samples;Min_cycle;Max_cycle;Signal;HPM_P1;HPM_P2
2022/02/17 00:02:24;;;;;;;49.93;31.90;;;;;;;2.20;86.28;98742.30;1769616;78;21114;-56
2022/02/17 00:04:52;;;;;;;61.07;35.73;;;;;;;2.21;86.28;98741.85;1795524;77;21147;-57
2022/02/17 00:07:20;;;;;;;57.43;34.90;;;;;;;2.20;86.28;98747.62;1797743;78;21439;-57
2022/02/17 00:09:47;;;;;;;50.97;31.87;;;;;;;2.20;86.28;98749.41;1780179;78;22303;-56
2022/02/17 00:12:13;;;;;;;65.30;38.57;;;;;;;2.19;86.30;98747.66;1770040;78;21072;-56
2022/02/17 00:14:40;;;;;;;67.00;38.47;;;;;;;2.17;86.29;98741.52;1775686;79;22745;-56
2022/02/17 00:17:06;;;;;;;67.57;37.03;;;;;;;2.15;86.34;98730.94;1771143;78;22186;-56
2022/02/17 00:19:33;;;;;;;62.97;35.17;;;;;;;2.15;86.40;98727.41;1769381;78;20998;-56
2022/02/17 00:21:59;;;;;;;72.00;39.63;;;;;;;2.14;86.45;98723.89;1794771;78;21478;-56
2022/02/17 00:24:27;;;;;;;78.00;42.83;;;;;;;2.12;86.48;98715.13;1764665;79;21037;-57
2022/02/17 00:26:53;;;;;;;54.00;32.70;;;;;;;2.13;86.51;98724.80;1799539;78;21535;-57
2022/02/17 00:29:19;;;;;;;62.50;33.77;;;;;;;2.14;86.54;98725.67;1796362;78;21109;-57
2022/02/17 00:31:45;;;;;;;64.70;36.23;;;;;;;2.13;86.57;98719.49;1795371;78;21511;-57
2022/02/17 00:34:13;;;;;;;48.77;29.07;;;;;;;2.13;86.55;98704.89;1795431;78;21470;-57
2022/02/17 00:36:39;;;;;;;47.63;30.37;;;;;;;2.12;86.57;98701.85;1776538;78;22557;-57
2022/02/17 00:39:05;;;;;;;44.70;27.87;;;;;;;2.12;86.59;98693.02;1767143;79;21497;-57
2022/02/17 00:41:32;;;;;;;57.97;34.07;;;;;;;2.13;86.66;98687.63;1769075;79;21032;-56
2022/02/17 00:43:59;;;;;;;41.70;28.23;;;;;;;2.12;86.59;98677.96;1769404;79;21029;-57
2022/02/17 00:46:27;;;;;;;38.47;25.53;;;;;;;2.11;86.59;98673.56;1763925;79;21044;-56
2022/02/17 00:48:53;;;;;;;50.03;31.67;;;;;;;2.10;86.55;98669.63;1750628;80;21005;-56
2022/02/17 00:51:20;;;;;;;48.87;32.97;;;;;;;2.09;86.56;98672.73;1748575;80;22413;-56
2022/02/17 00:53:46;;;;;;;52.80;32.67;;;;;;;2.10;86.63;98665.64;1749100;80;21125;-57
2022/02/17 00:56:13;;;;;;;46.23;31.47;;;;;;;2.11;86.65;98662.08;1749242;79;21374;-57
2022/02/17 00:58:39;;;;;;;45.40;30.77;;;;;;;2.11;86.69;98653.66;1726670;80;21124;-57
2022/02/17 01:01:08;;;;;;;43.03;28.23;;;;;;;2.13;86.72;98646.94;1747242;80;21071;-57
2022/02/17 01:03:34;;;;;;;41.17;27.77;;;;;;;2.14;86.74;98630.10;1752298;80;21140;-57
2022/02/17 01:06:01;;;;;;;45.87;29.37;;;;;;;2.16;86.75;98629.14;1750214;79;21156;-57
2022/02/17 01:08:29;;;;;;;40.00;26.30;;;;;;;2.16;86.73;98605.25;1749225;80;21112;-55
2022/02/17 01:10:56;;;;;;;44.47;29.03;;;;;;;2.17;86.69;98608.32;1748695;80;21093;-57
2022/02/17 01:13:23;;;;;;;47.33;28.83;;;;;;;2.18;86.71;98606.53;1745937;80;21115;-57
2022/02/17 01:15:52;;;;;;;42.00;27.50;;;;;;;2.17;86.72;98600.81;1750219;80;21210;-57
2022/02/17 01:18:18;;;;;;;46.07;29.37;;;;;;;2.18;86.75;98595.45;1753028;80;21440;-57
2022/02/17 01:20:46;;;;;;;47.37;29.50;;;;;;;2.19;86.77;98590.56;1751598;79;22292;-58
2022/02/17 01:23:13;;;;;;;47.87;29.17;;;;;;;2.20;86.82;98586.99;1753787;79;21081;-57
2022/02/17 01:25:39;;;;;;;45.17;29.67;;;;;;;2.21;86.79;98583.39;1751163;80;21079;-57
2022/02/17 01:28:06;;;;;;;45.93;28.43;;;;;;;2.22;86.74;98582.93;1729409;80;22170;-57
2022/02/17 01:30:34;;;;;;;45.80;29.97;;;;;;;2.22;86.74;98576.30;1755824;79;21073;-57
2022/02/17 01:33:01;;;;;;;42.00;27.60;;;;;;;2.23;86.70;98566.09;1748880;80;22624;-57
2022/02/17 01:35:28;;;;;;;41.27;27.80;;;;;;;2.21;86.60;98564.80;1752632;80;21557;-58
2022/02/17 01:38:05;;;;;;;44.53;29.67;;;;;;;2.22;86.52;98559.03;1754650;80;21554;-57
2022/02/17 01:40:35;;;;;;;45.53;29.97;;;;;;;2.21;86.50;98566.63;1750641;80;22625;-56
2022/02/17 01:43:03;;;;;;;45.97;30.07;;;;;;;2.19;86.48;98560.48;1752270;80;21139;-57
2022/02/17 01:45:30;;;;;;;47.73;30.87;;;;;;;2.18;86.49;98550.78;1748680;80;21058;-57
2022/02/17 01:47:57;;;;;;;49.20;29.70;;;;;;;2.17;86.51;98547.26;1755788;80;21298;-57
2022/02/17 01:50:25;;;;;;;51.23;32.17;;;;;;;2.17;86.51;98548.59;1753794;80;21044;-57
2022/02/17 01:52:52;;;;;;;44.90;29.40;;;;;;;2.18;86.58;98535.72;1749330;80;21308;-57
2022/02/17 01:55:18;;;;;;;46.87;30.23;;;;;;;2.19;86.67;98536.13;1752281;80;21530;-56
2022/02/17 01:57:45;;;;;;;48.87;30.23;;;;;;;2.19;86.75;98530.83;1750829;80;22281;-56
2022/02/17 02:00:14;;;;;;;45.17;27.00;;;;;;;2.21;86.91;98522.81;1755787;80;21320;-56
2022/02/17 02:02:46;;;;;;;46.03;29.40;;;;;;;2.22;87.03;98509.46;1754294;80;21059;-58
2022/02/17 02:05:13;;;;;;;52.07;31.60;;;;;;;2.24;87.10;98501.45;1755555;80;22175;-57
2022/02/17 02:07:43;;;;;;;45.83;27.87;;;;;;;2.25;87.20;98497.42;1759148;80;20977;-58
2022/02/17 02:10:11;;;;;;;48.47;29.40;;;;;;;2.27;87.25;98498.70;1757260;80;21349;-57
2022/02/17 02:12:38;;;;;;;45.50;29.93;;;;;;;2.28;87.34;98488.48;1754062;79;21004;-56
2022/02/17 02:15:07;;;;;;;42.83;26.37;;;;;;;2.29;87.41;98480.94;1760514;80;20926;-56
2022/02/17 02:17:38;;;;;;;41.90;28.23;;;;;;;2.31;87.50;98485.70;1756912;79;21098;-57
2022/02/17 02:20:06;;;;;;;45.60;27.90;;;;;;;2.33;87.60;98473.70;1757758;80;21373;-57
2022/02/17 02:22:34;;;;;;;45.53;28.73;;;;;;;2.34;87.69;98471.00;1754629;80;20875;-56
2022/02/17 02:25:00;;;;;;;44.13;28.17;;;;;;;2.35;87.75;98463.45;1755418;80;20949;-57
2022/02/17 02:27:28;;;;;;;41.53;27.93;;;;;;;2.38;87.85;98464.67;1757601;79;21000;-58
2022/02/17 02:29:56;;;;;;;42.13;27.77;;;;;;;2.42;87.92;98458.77;1755306;80;21068;-57
2022/02/17 02:32:24;;;;;;;41.93;27.80;;;;;;;2.44;87.97;98451.63;1751161;79;20919;-56
2022/02/17 02:34:51;;;;;;;45.80;28.90;;;;;;;2.47;88.07;98440.88;1759296;79;21394;-56
2022/02/17 02:37:18;;;;;;;44.30;26.70;;;;;;;2.49;88.16;98438.58;1758595;79;20994;-56
2022/02/17 02:39:44;;;;;;;44.97;27.73;;;;;;;2.50;88.23;98442.97;1746130;79;21289;-57
2022/02/17 02:42:11;;;;;;;42.13;26.50;;;;;;;2.53;88.29;98448.18;1772059;78;21058;-58
2022/02/17 02:44:37;;;;;;;40.73;26.60;;;;;;;2.56;88.42;98447.17;1772950;79;20906;-56
2022/02/17 02:47:05;;;;;;;43.77;27.13;;;;;;;2.57;88.53;98425.88;1770591;80;20933;-56
2022/02/17 02:49:36;;;;;;;46.00;29.90;;;;;;;2.59;88.57;98418.72;1767981;78;20863;-58
2022/02/17 02:52:04;;;;;;;40.03;25.83;;;;;;;2.62;88.63;98414.64;1770675;79;20934;-55
2022/02/17 02:54:38;;;;;;;41.07;27.57;;;;;;;2.63;88.67;98412.84;1771000;79;21665;-54
2022/02/17 02:57:05;;;;;;;42.47;26.37;;;;;;;2.65;88.70;98406.53;1767682;79;22112;-57
2022/02/17 02:59:34;;;;;;;41.87;27.30;;;;;;;2.66;88.69;98401.63;1768132;79;21024;-56
2022/02/17 03:02:01;;;;;;;49.27;28.83;;;;;;;2.68;88.73;98400.24;1767354;79;21045;-57
2022/02/17 03:04:27;;;;;;;42.90;26.43;;;;;;;2.69;88.75;98398.00;1767845;79;21068;-54
2022/02/17 03:06:53;;;;;;;42.57;28.47;;;;;;;2.70;88.78;98385.58;1768300;79;21144;-55
2022/02/17 03:09:21;;;;;;;42.90;26.70;;;;;;;2.70;88.82;98385.12;1765563;79;21538;-57
2022/02/17 03:11:48;;;;;;;45.93;29.87;;;;;;;2.71;88.86;98376.69;1765556;79;21086;-55
2022/02/17 03:14:15;;;;;;;49.03;31.23;;;;;;;2.73;88.90;98372.16;1765715;79;21044;-56
2022/02/17 03:16:42;;;;;;;50.03;29.80;;;;;;;2.73;88.95;98368.17;1768039;79;21550;-55
2022/02/17 03:19:08;;;;;;;46.37;28.00;;;;;;;2.76;88.98;98372.05;1763433;79;22678;-56
2022/02/17 03:21:34;;;;;;;47.40;29.90;;;;;;;2.77;88.98;98384.41;1765400;79;21660;-54
2022/02/17 03:24:04;;;;;;;52.70;31.57;;;;;;;2.78;89.00;98373.73;1767178;79;21468;-57
2022/02/17 03:26:32;;;;;;;46.90;31.60;;;;;;;2.78;89.05;98368.41;1767533;79;21104;-53
2022/02/17 03:28:59;;;;;;;48.47;30.50;;;;;;;2.80;89.13;98363.05;1769156;79;21025;-53
2022/02/17 03:31:25;;;;;;;45.97;30.30;;;;;;;2.81;89.12;98348.34;1770091;79;21106;-54
2022/02/17 03:34:02;;;;;;;54.43;33.23;;;;;;;2.83;89.07;98345.63;1772234;79;21033;-57
2022/02/17 03:36:29;;;;;;;51.70;31.20;;;;;;;2.84;89.08;98343.38;1766315;79;21056;-57
2022/02/17 03:38:57;;;;;;;46.77;31.03;;;;;;;2.84;89.11;98348.23;1767691;79;21080;-54
2022/02/17 03:41:25;;;;;;;51.27;32.50;;;;;;;2.84;89.11;98346.91;1766359;79;21656;-54
2022/02/17 03:43:55;;;;;;;47.63;30.47;;;;;;;2.87;89.11;98361.41;1768150;79;21309;-57
2022/02/17 03:46:23;;;;;;;55.00;34.90;;;;;;;2.88;89.10;98349.00;1768957;79;21389;-57
2022/02/17 03:48:49;;;;;;;51.67;32.63;;;;;;;2.93;89.14;98357.64;1766511;79;21608;-57
2022/02/17 03:51:18;;;;;;;54.73;33.87;;;;;;;2.95;89.09;98350.47;1766029;79;21065;-53
2022/02/17 03:53:45;;;;;;;54.13;34.47;;;;;;;2.94;89.07;98346.95;1768863;79;21111;-56
2022/02/17 03:56:11;;;;;;;54.87;33.20;;;;;;;2.95;89.06;98345.16;1768513;79;21473;-55
2022/02/17 03:59:03;;;;;;;51.05;31.87;;;;;;;2.95;89.05;98331.87;1767986;79;24951;-57
2022/02/17 04:01:32;;;;;;;52.93;32.47;;;;;;;2.96;89.09;98338.92;1773882;79;20958;-55
2022/02/17 04:04:00;;;;;;;54.33;33.77;;;;;;;2.97;89.07;98332.22;1771500;79;20969;-56
2022/02/17 04:06:27;;;;;;;57.87;36.80;;;;;;;2.98;89.08;98317.97;1768731;79;21592;-57
2022/02/17 04:08:54;;;;;;;52.80;32.37;;;;;;;3.02;89.07;98314.74;1769223;79;21214;-56
2022/02/17 04:11:22;;;;;;;51.03;30.73;;;;;;;3.03;89.06;98316.48;1763262;79;21144;-55
2022/02/17 04:13:49;;;;;;;51.93;31.93;;;;;;;3.03;88.97;98305.38;1769788;79;21036;-55
2022/02/17 04:16:18;;;;;;;55.03;33.57;;;;;;;3.02;88.93;98308.96;1768492;79;21049;-56
2022/02/17 04:18:46;;;;;;;51.60;31.97;;;;;;;3.03;88.96;98307.17;1769907;79;21103;-55
2022/02/17 04:21:19;;;;;;;50.80;29.87;;;;;;;3.02;88.91;98308.09;1771214;79;21766;-56
2022/02/17 04:23:59;;;;;;;58.37;32.70;;;;;;;3.03;88.91;98301.85;1696135;79;21067;-54
2022/02/17 04:26:27;;;;;;;54.30;33.53;;;;;;;3.02;88.86;98290.36;1766493;79;21068;-56
2022/02/17 04:28:57;;;;;;;52.13;31.30;;;;;;;3.03;88.86;98284.58;1767112;79;20991;-56
2022/02/17 04:31:27;;;;;;;53.77;32.90;;;;;;;3.03;88.83;98277.47;1763817;79;21058;-56
2022/02/17 04:33:56;;;;;;;51.93;32.77;;;;;;;3.03;88.79;98281.92;1765807;79;21346;-55
2022/02/17 04:36:24;;;;;;;57.77;34.17;;;;;;;3.02;88.77;98269.09;1765146;79;21033;-54
2022/02/17 04:38:51;;;;;;;59.17;33.50;;;;;;;3.02;88.72;98265.56;1768684;79;21103;-56
2022/02/17 04:44:05;;;;;;;51.27;31.87;;;;;;;3.02;88.69;98245.16;1772065;79;21390;-55
2022/02/17 04:46:32;;;;;;;53.27;33.07;;;;;;;3.03;88.68;98247.36;1772119;79;21193;-53
2022/02/17 04:48:59;;;;;;;55.80;34.37;;;;;;;3.03;88.67;98244.70;1769501;79;21045;-56
2022/02/17 04:51:25;;;;;;;54.50;31.63;;;;;;;3.02;88.60;98239.84;1771116;79;21148;-56
2022/02/17 04:53:51;;;;;;;59.30;36.83;;;;;;;3.02;88.57;98234.53;1768520;79;21120;-56
2022/02/17 04:56:18;;;;;;;55.27;33.50;;;;;;;3.02;88.52;98240.31;1770051;78;21159;-57
2022/02/17 04:58:44;;;;;;;53.03;31.33;;;;;;;3.01;88.50;98238.11;1798577;78;21065;-55
2022/02/17 05:01:12;;;;;;;55.37;33.57;;;;;;;3.01;88.49;98232.80;1796841;78;21076;-56
2022/02/17 05:03:53;;;;;;;54.60;36.00;;;;;;;3.02;88.48;98219.91;1768029;79;21065;-57
2022/02/17 05:06:20;;;;;;;57.10;33.97;;;;;;;3.05;88.45;98221.59;1774438;79;21370;-55
2022/02/17 05:08:51;;;;;;;58.17;32.70;;;;;;;3.04;88.37;98218.06;1770614;79;21060;-55
2022/02/17 05:11:20;;;;;;;52.17;33.57;;;;;;;3.05;88.33;98217.59;1786442;78;21179;-55
2022/02/17 05:13:48;;;;;;;56.13;32.93;;;;;;;3.06;88.27;98223.31;1777715;78;21056;-54
2022/02/17 05:16:16;;;;;;;56.10;34.93;;;;;;;3.06;88.24;98218.47;1780276;79;21021;-55
2022/02/17 05:18:45;;;;;;;53.77;34.07;;;;;;;3.06;88.19;98213.15;1781626;78;21915;-54
2022/02/17 05:21:19;;;;;;;58.58;34.98;;;;;;;3.05;88.14;98201.65;1781964;79;20981;-54
2022/02/17 05:23:56;;;;;;;52.33;31.93;;;;;;;3.06;88.12;98192.75;1779708;79;21104;-53
2022/02/17 05:26:42;;;;;;;54.37;31.93;;;;;;;3.06;88.10;98183.45;1784967;79;21438;-55
2022/02/17 05:29:10;;;;;;;54.47;30.80;;;;;;;3.07;88.05;98186.94;1778644;79;20950;-57
2022/02/17 05:31:41;;;;;;;60.10;36.20;;;;;;;3.07;88.00;98176.30;1783214;79;20972;-54
2022/02/17 05:34:10;;;;;;;50.23;30.27;;;;;;;3.04;87.94;98170.67;1721175;79;20933;-55
2022/02/17 05:36:41;;;;;;;57.90;34.33;;;;;;;3.03;87.98;98160.50;1787385;79;21914;-54
2022/02/17 05:39:12;;;;;;;59.93;34.33;;;;;;;3.04;87.96;98156.05;1780519;79;21000;-57
2022/02/17 05:41:55;;;;;;;53.23;34.43;;;;;;;3.07;87.99;98156.36;1782533;79;20918;-54
2022/02/17 05:44:21;;;;;;;60.00;35.50;;;;;;;3.08;87.95;98154.97;1783672;79;20854;-57
2022/02/17 05:46:47;;;;;;;59.97;35.67;;;;;;;3.10;87.90;98157.11;1783445;79;20956;-54
2022/02/17 05:49:14;;;;;;;56.00;36.83;;;;;;;3.11;87.85;98150.00;1782304;79;20890;-56
2022/02/17 05:53:36;;;;;;;63.20;37.10;;;;;;;3.15;87.83;98140.97;1789729;77;27043;-56
2022/02/17 05:56:03;;;;;;;58.00;33.43;;;;;;;3.08;87.76;98147.00;1755788;79;20993;-55
2022/02/17 05:58:33;;;;;;;58.90;34.10;;;;;;;3.08;87.78;98140.35;1738361;80;21019;-56
2022/02/17 06:00:59;;;;;;;54.43;29.23;;;;;;;3.08;87.75;98135.04;1734507;80;21089;-56
2022/02/17 06:03:27;;;;;;;56.57;34.07;;;;;;;3.07;87.75;98131.11;1739866;80;20949;-54
2022/02/17 06:05:54;;;;;;;55.13;31.67;;;;;;;3.05;87.76;98128.55;1738571;81;21079;-55
2022/02/17 06:08:20;;;;;;;62.10;36.30;;;;;;;3.04;87.79;98134.33;1737331;81;20981;-56
2022/02/17 06:10:46;;;;;;;57.27;33.60;;;;;;;3.04;87.76;98133.00;1738533;81;21147;-58
2022/02/17 06:13:12;;;;;;;65.07;38.73;;;;;;;3.05;87.78;98133.86;1740066;80;21289;-57
2022/02/17 06:15:41;;;;;;;68.90;39.10;;;;;;;3.04;87.79;98130.34;1745495;80;20903;-57
2022/02/17 06:18:07;;;;;;;54.17;31.10;;;;;;;3.08;87.80;98124.41;1737374;80;21377;-57
2022/02/17 06:20:33;;;;;;;53.63;32.33;;;;;;;3.12;87.83;98117.17;1736187;80;21403;-57
2022/02/17 06:23:00;;;;;;;53.90;32.07;;;;;;;3.14;87.79;98113.52;1737182;80;22801;-55
2022/02/17 06:25:26;;;;;;;58.30;33.67;;;;;;;3.18;87.78;98111.11;1739301;80;21267;-58
2022/02/17 06:27:52;;;;;;;57.63;35.80;;;;;;;3.21;87.71;98110.98;1711864;82;21491;-55
2022/02/17 06:30:21;;;;;;;54.43;32.67;;;;;;;3.23;87.63;98109.59;1671670;83;21120;-54
2022/02/17 06:32:51;;;;;;;55.60;33.30;;;;;;;3.24;87.57;98102.84;1678116;83;21414;-54
2022/02/17 06:35:21;;;;;;;57.17;33.50;;;;;;;3.24;87.51;98090.88;1674611;83;21130;-55
2022/02/17 06:37:49;;;;;;;58.23;33.43;;;;;;;3.25;87.42;98091.28;1680839;83;21161;-57
2022/02/17 06:40:17;;;;;;;51.70;33.83;;;;;;;3.28;87.39;98086.30;1677735;83;21062;-55
2022/02/17 06:42:44;;;;;;;58.67;34.80;;;;;;;3.29;87.35;98081.38;1684044;83;20928;-55
2022/02/17 06:45:11;;;;;;;54.70;33.87;;;;;;;3.29;87.32;98080.92;1684167;83;21405;-55
2022/02/17 06:47:37;;;;;;;57.60;33.87;;;;;;;3.30;87.26;98081.78;1684423;83;21557;-57
2022/02/17 06:50:05;;;;;;;62.23;34.50;;;;;;;3.33;87.24;98084.28;1680575;83;22305;-57
2022/02/17 06:52:32;;;;;;;58.13;33.07;;;;;;;3.36;87.20;98074.84;1674609;83;20935;-57
2022/02/17 06:54:58;;;;;;;59.40;34.90;;;;;;;3.39;87.13;98071.59;1729303;81;20934;-56
2022/02/17 06:57:25;;;;;;;55.43;32.73;;;;;;;3.43;87.04;98069.64;1728914;81;21055;-55
2022/02/17 06:59:52;;;;;;;52.47;30.97;;;;;;;3.45;86.93;98063.78;1727401;81;21143;-59
2022/02/17 07:02:25;;;;;;;55.70;31.90;;;;;;;3.49;86.88;98057.87;1727399;81;21577;-55
2022/02/17 07:04:52;;;;;;;56.80;33.10;;;;;;;3.51;86.68;98055.51;1725840;81;21125;-56
2022/02/17 07:07:19;;;;;;;53.17;32.43;;;;;;;3.53;86.60;98034.16;1727453;81;21054;-58
2022/02/17 07:09:46;;;;;;;56.67;33.10;;;;;;;3.56;86.48;98051.32;1728886;81;21046;-57
2022/02/17 07:12:14;;;;;;;53.43;33.13;;;;;;;3.59;86.46;98036.52;1733583;81;20931;-55
2022/02/17 07:14:41;;;;;;;53.63;32.00;;;;;;;3.63;86.39;98028.81;1728782;81;20954;-55
2022/02/17 07:17:07;;;;;;;52.47;34.10;;;;;;;3.65;86.27;98017.63;1726306;81;21068;-56
2022/02/17 07:19:34;;;;;;;47.83;30.60;;;;;;;3.69;86.10;98012.08;1727549;81;21877;-57
2022/02/17 07:22:00;;;;;;;53.83;32.50;;;;;;;3.73;86.00;97996.84;1724923;81;21196;-58
2022/02/17 07:24:27;;;;;;;54.80;33.87;;;;;;;3.76;85.82;97987.35;1725228;81;21116;-58
2022/02/17 07:26:54;;;;;;;56.40;33.43;;;;;;;3.78;85.66;97969.05;1726331;81;21062;-56
2022/02/17 07:29:20;;;;;;;50.23;29.90;;;;;;;3.80;85.52;97967.19;1731927;81;21024;-54
2022/02/17 07:31:51;;;;;;;48.87;30.77;;;;;;;3.83;85.38;97962.66;1726959;81;21132;-58
2022/02/17 07:34:15;;;;;;;50.73;29.40;;;;;;;3.83;85.24;97961.33;1724342;81;21084;-55
2022/02/17 07:36:41;;;;;;;51.63;31.53;;;;;;;3.84;85.06;97943.05;1727224;81;21107;-58
2022/02/17 07:39:09;;;;;;;51.63;31.30;;;;;;;3.83;85.01;97942.19;1731228;81;21101;-56
2022/02/17 07:41:37;;;;;;;44.93;28.47;;;;;;;3.85;84.98;97932.81;1720853;81;22446;-54
2022/02/17 07:44:06;;;;;;;47.37;30.20;;;;;;;3.89;84.94;97921.95;1726164;81;22625;-55
2022/02/17 07:46:33;;;;;;;46.80;28.40;;;;;;;3.94;84.85;97923.89;1726048;81;20934;-55
2022/02/17 07:51:31;;;;;;;49.57;31.27;;;;;;;4.09;84.59;97899.61;1828128;75;26653;-56
2022/02/17 07:53:58;;;;;;;46.73;30.63;;;;;;;4.11;84.56;97921.23;1803191;77;22181;-55
2022/02/17 07:56:24;;;;;;;51.93;32.00;;;;;;;4.18;84.51;97921.78;1818378;75;21620;-56
2022/02/17 07:58:50;;;;;;;42.10;27.13;;;;;;;4.25;84.32;97912.55;1837265;76;21096;-54
2022/02/17 08:01:18;;;;;;;48.03;29.50;;;;;;;4.33;84.12;97918.34;1834655;75;21048;-57
2022/02/17 08:03:45;;;;;;;43.10;27.00;;;;;;;4.38;83.77;97915.42;1802549;77;21037;-57
2022/02/17 08:06:12;;;;;;;49.30;29.67;;;;;;;4.44;83.62;97928.41;1784383;79;21333;-56
2022/02/17 08:08:39;;;;;;;41.73;28.00;;;;;;;4.49;83.40;97938.38;1781541;78;21087;-55
2022/02/17 08:11:07;;;;;;;44.63;27.07;;;;;;;4.58;83.35;97950.36;1800634;77;21336;-56
2022/02/17 08:13:33;;;;;;;54.20;32.70;;;;;;;4.67;83.17;97936.08;1781931;79;21404;-55
2022/02/17 08:16:00;;;;;;;46.00;29.13;;;;;;;4.74;82.90;97926.80;1784391;78;21090;-57
2022/02/17 08:18:28;;;;;;;47.03;31.07;;;;;;;4.82;82.71;97921.06;1776569;78;21050;-55
2022/02/17 08:20:54;;;;;;;46.30;31.33;;;;;;;4.89;82.62;97902.45;1772163;78;21221;-57
2022/02/17 08:23:21;;;;;;;45.30;30.67;;;;;;;4.96;82.35;97903.83;1797893;77;21085;-56
2022/02/17 08:25:48;;;;;;;44.53;29.37;;;;;;;5.02;82.12;97883.98;1749541;79;21110;-57
2022/02/17 08:28:15;;;;;;;43.30;29.13;;;;;;;5.07;81.73;97871.25;1786120;78;20939;-57
2022/02/17 08:30:41;;;;;;;40.37;25.47;;;;;;;5.10;81.49;97861.28;1805115;77;20916;-56
2022/02/17 08:33:09;;;;;;;40.20;28.17;;;;;;;5.16;81.21;97854.25;1809416;77;21115;-54
2022/02/17 08:35:35;;;;;;;49.60;31.40;;;;;;;5.20;80.97;97838.92;1808620;77;20959;-53
2022/02/17 08:38:01;;;;;;;47.60;28.80;;;;;;;5.24;80.75;97829.81;1816228;77;21448;-57
2022/02/17 08:40:28;;;;;;;47.23;31.60;;;;;;;5.29;80.50;97823.73;1811105;77;21421;-55
2022/02/17 08:43:08;;;;;;;43.20;29.30;;;;;;;5.34;80.43;97823.01;1816043;77;21407;-57
2022/02/17 08:45:23;;;;;;;50.33;31.50;;;;;;;5.42;80.24;97818.08;1802329;77;21048;-57
2022/02/17 08:47:50;;;;;;;46.43;29.17;;;;;;;5.48;79.82;97820.86;1786160;78;20915;-54
2022/02/17 08:50:16;;;;;;;44.93;29.27;;;;;;;5.51;79.56;97828.70;1783172;78;20875;-56
2022/02/17 08:52:42;;;;;;;49.30;30.33;;;;;;;5.56;79.38;97831.95;1807079;77;21605;-54
2022/02/17 08:55:09;;;;;;;41.73;28.67;;;;;;;5.63;79.35;97825.30;1768034;79;20958;-57
2022/02/17 08:57:35;;;;;;;46.40;31.03;;;;;;;5.72;79.21;97826.09;1775108;78;21072;-56
2022/02/17 09:00:03;;;;;;;42.40;28.57;;;;;;;5.79;78.91;97799.41;1786708;78;20973;-57
2022/02/17 09:02:30;;;;;;;45.93;29.00;;;;;;;5.87;78.60;97809.66;1779982;78;20959;-57
2022/02/17 09:04:56;;;;;;;46.53;30.67;;;;;;;5.91;78.26;97805.86;1766776;79;20918;-57
2022/02/17 09:07:23;;;;;;;43.97;28.67;;;;;;;5.94;78.12;97798.55;1779830;78;21391;-54
2022/02/17 09:09:51;;;;;;;39.10;27.60;;;;;;;5.99;77.95;97784.42;1780603;78;21081;-54
2022/02/17 09:12:17;;;;;;;41.77;26.90;;;;;;;6.02;77.64;97785.58;1778544;78;21029;-56
2022/02/17 09:14:46;;;;;;;46.13;30.00;;;;;;;6.03;77.36;97771.28;1776897;78;21116;-57
2022/02/17 09:17:12;;;;;;;43.40;28.90;;;;;;;6.04;77.14;97760.95;1775197;79;21057;-56
2022/02/17 09:19:39;;;;;;;42.93;28.50;;;;;;;6.05;76.94;97745.31;1776723;78;21375;-54
2022/02/17 09:22:05;;;;;;;42.77;28.13;;;;;;;6.05;76.82;97752.46;1779727;78;21404;-53
2022/02/17 09:24:33;;;;;;;41.30;28.57;;;;;;;6.06;76.59;97748.84;1777831;78;21642;-55
2022/02/17 09:27:00;;;;;;;40.33;26.20;;;;;;;6.05;76.50;97734.63;1775540;78;21148;-55
2022/02/17 09:29:26;;;;;;;42.37;27.17;;;;;;;6.06;76.50;97725.66;1778247;79;21117;-57
2022/02/17 09:31:53;;;;;;;38.90;26.03;;;;;;;6.08;76.39;97720.23;1778318;79;21093;-55
2022/02/17 09:34:19;;;;;;;38.97;26.97;;;;;;;6.10;76.29;97713.47;1777570;78;22771;-54
2022/02/17 09:36:45;;;;;;;39.33;27.90;;;;;;;6.12;76.30;97706.22;1774680;78;21554;-55
2022/02/17 09:39:12;;;;;;;36.33;23.97;;;;;;;6.14;76.26;97705.15;1776223;79;21594;-56
2022/02/17 09:41:38;;;;;;;34.53;25.00;;;;;;;6.18;76.17;97695.14;1774879;79;21548;-56
2022/02/17 09:44:09;;;;;;;34.90;24.33;;;;;;;6.23;76.05;97686.34;1775703;79;21105;-56
2022/02/17 09:46:38;;;;;;;34.93;23.67;;;;;;;6.28;75.99;97677.11;1777813;78;21938;-54
2022/02/17 09:49:05;;;;;;;36.77;24.30;;;;;;;6.34;75.87;97668.69;1774464;78;21106;-57
2022/02/17 09:51:33;;;;;;;30.43;22.13;;;;;;;6.42;75.82;97661.03;1767712;78;20920;-56
2022/02/17 09:54:00;;;;;;;37.23;25.57;;;;;;;6.49;75.57;97657.95;1758959;80;20989;-56
2022/02/17 09:56:26;;;;;;;30.30;22.63;;;;;;;6.54;75.48;97651.38;1758818;80;21183;-54
2022/02/17 09:58:54;;;;;;;37.73;22.97;;;;;;;6.60;75.30;97642.95;1760783;80;21946;-57
2022/02/17 10:01:31;;;;;;;27.30;18.80;;;;;;;6.68;75.12;97625.06;1758887;80;21098;-56
2022/02/17 10:04:16;;;;;;;27.00;20.50;;;;;;;6.75;74.72;97621.02;1755974;80;22514;-54
2022/02/17 10:06:50;;;;;;;27.13;20.47;;;;;;;6.81;74.50;97613.44;1752228;80;21165;-56
2022/02/17 10:09:18;;;;;;;;;;;;;;;6.88;74.10;97619.73;1764812;80;20900;-57
2022/02/17 10:11:46;;;;;;;23.67;17.73;;;;;;;6.93;73.88;97613.58;1762096;79;21105;-54
2022/02/17 10:14:16;;;;;;;22.50;17.07;;;;;;;6.96;73.64;97607.56;1759513;80;20959;-55
2022/02/17 10:17:03;;;;;;;23.67;16.87;;;;;;;6.99;73.25;97603.32;1762778;80;22267;-55
2022/02/17 10:19:49;;;;;;;25.27;16.27;;;;;;;7.03;73.11;97600.83;1759362;80;20979;-56
2022/02/17 10:22:19;;;;;;;27.70;17.80;;;;;;;7.07;72.78;97591.62;1754800;80;22323;-56
2022/02/17 10:24:49;;;;;;;27.50;17.98;;;;;;;7.11;72.56;97588.27;1759348;80;21110;-53
2022/02/17 10:27:22;;;;;;;24.63;16.65;;;;;;;7.15;72.38;97587.94;1732822;80;21085;-54
2022/02/17 10:30:10;;;;;;;21.55;16.15;;;;;;;7.21;71.99;97573.30;1761310;80;20967;-54
2022/02/17 10:32:56;;;;;;;21.97;15.90;;;;;;;7.28;71.89;97567.89;1757884;80;21399;-57
2022/02/17 10:35:25;;;;;;;19.20;15.33;;;;;;;7.36;71.67;97552.64;1760343;80;21141;-55
2022/02/17 10:37:55;;;;;;;19.17;13.70;;;;;;;7.41;71.36;97545.98;1760644;80;21138;-56
2022/02/17 10:40:27;;;;;;;21.20;14.05;;;;;;;7.46;71.20;97538.98;1759586;80;21067;-54
2022/02/17 10:43:11;;;;;;;17.95;13.18;;;;;;;7.47;70.89;97536.20;1754153;80;21122;-56
2022/02/17 10:45:38;;;;;;;19.73;14.78;;;;;;;7.49;70.72;97533.39;1756234;80;21693;-54
2022/02/17 10:48:26;;;;;;;21.12;15.08;;;;;;;7.50;70.39;97535.97;1763948;80;20931;-55
2022/02/17 10:51:12;;;;;;;19.60;13.65;;;;;;;7.50;70.18;97529.76;1762883;80;21779;-53
2022/02/17 10:53:48;;;;;;;18.67;12.75;;;;;;;7.50;70.11;97524.41;1759336;80;21062;-54
2022/02/17 10:56:17;;;;;;;15.00;11.33;;;;;;;7.51;69.88;97526.98;1729645;80;21050;-55
2022/02/17 10:58:47;;;;;;;15.98;11.08;;;;;;;7.54;69.67;97519.22;1763732;80;21075;-52
2022/02/17 11:01:15;;;;;;;13.83;10.40;;;;;;;7.53;69.37;97513.02;1757938;80;21081;-55
2022/02/17 11:03:42;;;;;;;14.75;11.57;;;;;;;7.51;69.05;97509.58;1755713;80;21535;-55
2022/02/17 11:06:14;;;;;;;12.15;10.88;;;;;;;7.50;69.02;97507.86;1755987;80;22357;-57
2022/02/17 11:08:43;;;;;;;12.63;10.80;;;;;;;7.49;69.02;97503.95;1778362;78;21035;-54
2022/02/17 11:11:10;;;;;;;17.48;11.25;;;;;;;7.44;68.98;97498.94;1755958;79;21436;-54
2022/02/17 11:13:36;;;;;;;16.20;11.25;;;;;;;7.41;69.20;97488.92;1773293;78;20925;-54
2022/02/17 11:16:07;;;;;;;18.07;11.93;;;;;;;7.39;69.45;97488.20;1769457;78;21044;-55
2022/02/17 11:18:33;;;;;;;11.78;10.03;;;;;;;7.36;69.62;97475.02;1781006;78;21558;-53
2022/02/17 11:21:01;;;;;;;14.63;11.28;;;;;;;7.32;69.97;97471.70;1769063;78;21455;-53
2022/02/17 11:23:35;;;;;;;17.55;12.47;;;;;;;7.28;70.31;97464.02;1768648;78;21091;-54
2022/02/17 11:26:06;;;;;;;12.40;10.93;;;;;;;7.24;70.43;97441.95;1774148;78;21024;-55
2022/02/17 11:28:37;;;;;;;11.23;9.00;;;;;;;7.20;70.65;97452.52;1770092;78;21539;-54
2022/02/17 11:31:08;;;;;;;12.25;10.03;;;;;;;7.16;70.73;97445.18;1767326;78;21048;-54
2022/02/17 11:33:37;;;;;;;11.97;10.33;;;;;;;7.16;70.78;97438.97;1769303;78;21123;-54
2022/02/17 11:36:26;;;;;;;12.85;9.63;;;;;;;7.17;70.57;97439.34;1775988;78;20969;-54
2022/02/17 11:38:56;;;;;;;13.10;11.00;;;;;;;7.17;70.63;97425.49;1772445;78;20938;-56
2022/02/17 11:41:31;;;;;;;14.30;9.78;;;;;;;7.20;70.71;97427.10;1771387;78;21120;-55